Time;durP1;ratioP1;P1;durP2;ratioP2;P2;SDS_P1;SDS_P2;PMS_P1;PMS_P2;Temp;Humidity;BMP_temperature;BMP_pressure;BME280_temperature;BME280_humidity;BME280_pressure;Samples;Min_cycle;Max_cycle;Signal;HPM_P1;HPM_P2
2023/04/15 00:00:36;;;;;;;;;;;;;;;9.82;100.00;96768.28;5128988;28;19931;-68
2023/04/15 00:03:03;;;;;;;;;;;;;;;9.72;100.00;96761.97;5125165;28;19955;-66
2023/04/15 00:05:30;;;;;;;;;;;;;;;9.69;100.00;96756.44;5121776;28;19947;-67
2023/04/15 00:07:58;;;;;;;;;;;;;;;9.65;100.00;96755.44;5121620;28;19928;-67
2023/04/15 00:10:25;;;;;;;;;;;;;;;9.63;100.00;96757.56;5124495;28;20000;-67
2023/04/15 00:12:52;;;;;;;;;;;;;;;9.56;100.00;96752.56;5124669;28;19924;-67
2023/04/15 00:15:18;;;;;;;;;;;;;;;9.61;100.00;96755.19;5123178;28;19924;-67
2023/04/15 00:17:45;;;;;;;;;;;;;;;9.37;100.00;96743.75;5121747;28;19924;-67
2023/04/15 00:20:11;;;;;;;;;;;;;;;9.84;100.00;96747.47;5122676;28;19924;-60
2023/04/15 00:22:38;;;;;;;;;;;;;;;9.73;100.00;96741.47;5127878;28;19945;-62
2023/04/15 00:25:06;;;;;;;;;;;;;;;9.58;100.00;96742.44;5128196;28;19963;-61
2023/04/15 00:27:32;;;;;;;;;;;;;;;9.50;100.00;96735.06;5115803;28;19982;-61
2023/04/15 00:29:58;;;;;;;;;;;;;;;9.48;100.00;96729.22;5117480;28;19957;-61
2023/04/15 00:32:25;;;;;;;;;;;;;;;9.39;100.00;96730.13;5126904;28;19973;-61
2023/04/15 00:34:51;;;;;;;;;;;;;;;9.26;100.00;96722.81;5126798;28;19951;-61
2023/04/15 00:37:18;;;;;;;;;;;;;;;9.31;100.00;96728.91;5124073;28;19924;-61
2023/04/15 00:39:44;;;;;;;;;;;;;;;9.28;100.00;96718.00;5123284;28;19923;-61
2023/04/15 00:42:13;;;;;;;;;;;;;;;9.44;100.00;96720.19;5122313;28;19932;-62
2023/04/15 00:44:39;;;;;;;;;;;;;;;9.42;100.00;96717.03;5125430;28;19924;-62
2023/04/15 00:47:06;;;;;;;;;;;;;;;9.27;100.00;96719.06;5124906;28;19920;-61
2023/04/15 00:49:33;;;;;;;;;;;;;;;9.31;100.00;96725.44;5121371;28;19924;-61
2023/04/15 00:51:59;;;;;;;;;;;;;;;9.24;100.00;96712.44;5123754;28;19924;-61
2023/04/15 00:54:25;;;;;;;;;;;;;;;9.08;100.00;96713.69;5123847;28;19992;-61
2023/04/15 00:56:52;;;;;;;;;;;;;;;9.15;100.00;96719.47;5124285;28;19924;-61
2023/04/15 00:59:20;;;;;;;;;;;;;;;9.16;100.00;96715.72;5122381;28;19926;-61
2023/04/15 01:01:46;;;;;;;;;;;;;;;9.21;100.00;96713.81;5124368;28;19931;-61
2023/04/15 01:04:13;;;;;;;;;;;;;;;9.21;100.00;96713.03;5121412;28;19980;-62
2023/04/15 01:06:39;;;;;;;;;;;;;;;9.29;100.00;96714.25;5106015;28;20578;-62
2023/04/15 01:09:06;;;;;;;;;;;;;;;9.36;100.00;96707.53;5123606;28;19923;-62
2023/04/15 01:11:33;;;;;;;;;;;;;;;9.33;100.00;96716.09;5120704;28;19924;-61
2023/04/15 01:13:59;;;;;;;;;;;;;;;9.39;100.00;96709.63;5120489;28;20019;-62
2023/04/15 01:16:28;;;;;;;;;;;;;;;9.37;100.00;96711.78;5123310;28;19924;-61
2023/04/15 01:18:55;;;;;;;;;;;;;;;9.46;100.00;96711.94;5123834;28;19930;-62
2023/04/15 01:21:21;;;;;;;;;;;;;;;9.53;100.00;96710.50;5121799;28;19935;-62
2023/04/15 01:23:48;;;;;;;;;;;;;;;9.59;100.00;96719.25;5119902;28;19967;-62
2023/04/15 01:26:17;;;;;;;;;;;;;;;9.61;100.00;96711.75;5121260;28;20331;-61
2023/04/15 01:28:43;;;;;;;;;;;;;;;9.60;100.00;96721.63;5123893;28;19934;-62
2023/04/15 01:31:12;;;;;;;;;;;;;;;9.52;100.00;96711.59;5126891;28;19920;-62
2023/04/15 01:33:39;;;;;;;;;;;;;;;9.58;100.00;96717.66;5120099;28;19935;-62
2023/04/15 01:36:07;;;;;;;;;;;;;;;9.55;100.00;96712.91;5120297;28;19951;-62
2023/04/15 01:38:34;;;;;;;;;;;;;;;9.55;100.00;96719.03;5123761;28;19959;-61
2023/04/15 01:41:00;;;;;;;;;;;;;;;9.86;100.00;96724.78;5123743;28;19942;-61
2023/04/15 01:43:28;;;;;;;;;;;;;;;9.87;100.00;96718.38;5102243;28;19931;-61
2023/04/15 01:45:55;;;;;;;;;;;;;;;9.98;100.00;96716.34;5119803;28;19946;-61
2023/04/15 01:48:21;;;;;;;;;;;;;;;9.92;100.00;96718.28;5122199;28;19928;-61
2023/04/15 01:50:48;;;;;;;;;;;;;;;9.86;100.00;96707.97;5123504;28;19919;-62
2023/04/15 01:53:15;;;;;;;;;;;;;;;9.85;100.00;96707.16;5122027;28;19919;-62
2023/04/15 01:55:42;;;;;;;;;;;;;;;9.86;100.00;96707.97;5120118;28;19935;-61
2023/04/15 01:58:08;;;;;;;;;;;;;;;9.83;100.00;96697.88;5120348;28;19992;-61
2023/04/15 02:00:36;;;;;;;;;;;;;;;9.91;100.00;96710.56;5127071;28;19963;-62
2023/04/15 02:03:03;;;;;;;;;;;;;;;9.88;100.00;96713.78;5123044;28;19991;-62
2023/04/15 02:05:29;;;;;;;;;;;;;;;9.81;100.00;96716.81;5119564;28;19965;-62
2023/04/15 02:07:55;;;;;;;;;;;;;;;9.82;100.00;96713.06;5119519;28;19942;-62
2023/04/15 02:10:22;;;;;;;;;;;;;;;9.87;100.00;96705.03;5103802;28;19931;-62
2023/04/15 02:12:48;;;;;;;;;;;;;;;9.81;100.00;96705.38;5122920;28;19955;-62
2023/04/15 02:15:15;;;;;;;;;;;;;;;9.83;100.00;96708.53;5121456;28;19924;-62
2023/04/15 02:17:44;;;;;;;;;;;;;;;9.83;100.00;96703.22;5119369;28;19928;-62
2023/04/15 02:20:11;;;;;;;;;;;;;;;9.86;100.00;96702.63;5120685;28;19983;-61
2023/04/15 02:22:37;;;;;;;;;;;;;;;9.77;100.00;96697.97;5106119;28;19924;-61
2023/04/15 02:25:04;;;;;;;;;;;;;;;9.77;100.00;96700.63;5123480;28;19951;-62
2023/04/15 02:27:31;;;;;;;;;;;;;;;9.82;100.00;96698.94;5111806;28;19928;-62
2023/04/15 02:29:57;;;;;;;;;;;;;;;9.93;100.00;96709.22;5113783;28;19927;-62
2023/04/15 02:32:24;;;;;;;;;;;;;;;9.97;100.00;96704.06;5122903;28;19955;-62
2023/04/15 02:34:52;;;;;;;;;;;;;;;9.94;100.00;96709.97;5122881;28;19987;-61
2023/04/15 02:37:19;;;;;;;;;;;;;;;9.95;100.00;96700.91;5124346;28;19946;-63
2023/04/15 02:39:45;;;;;;;;;;;;;;;10.07;100.00;96706.59;5123102;28;19946;-61
2023/04/15 02:42:12;;;;;;;;;;;;;;;10.11;100.00;96704.97;5124180;28;19928;-62
2023/04/15 02:44:39;;;;;;;;;;;;;;;10.09;100.00;96707.09;5126737;28;20384;-61
2023/04/15 02:47:06;;;;;;;;;;;;;;;10.01;100.00;96707.75;5126717;28;19953;-62
2023/04/15 02:49:32;;;;;;;;;;;;;;;9.95;100.00;96711.56;5123029;28;20006;-61
2023/04/15 02:52:00;;;;;;;;;;;;;;;9.91;100.00;96708.69;5122942;28;19924;-62
2023/04/15 02:54:28;;;;;;;;;;;;;;;9.98;100.00;96709.13;5125967;28;19923;-61
2023/04/15 02:56:55;;;;;;;;;;;;;;;9.96;100.00;96711.31;5126591;28;19924;-61
2023/04/15 02:59:22;;;;;;;;;;;;;;;9.98;100.00;96713.66;5124204;28;19987;-61
2023/04/15 03:01:48;;;;;;;;;;;;;;;10.00;100.00;96714.16;5126963;28;19957;-61
2023/04/15 03:04:15;;;;;;;;;;;;;;;9.95;100.00;96717.72;5124280;28;19924;-61
2023/04/15 03:06:41;;;;;;;;;;;;;;;9.92;100.00;96709.50;5126236;28;19924;-62
2023/04/15 03:09:09;;;;;;;;;;;;;;;9.91;100.00;96713.22;5125819;28;19924;-61
2023/04/15 03:11:39;;;;;;;;;;;;;;;9.95;100.00;96714.25;5122619;28;19963;-61
2023/04/15 03:14:05;;;;;;;;;;;;;;;9.88;100.00;96711.94;5122497;28;19920;-61
2023/04/15 03:16:32;;;;;;;;;;;;;;;9.82;100.00;96709.63;5126013;28;19950;-61
2023/04/15 03:18:58;;;;;;;;;;;;;;;9.88;100.00;96700.47;5125874;28;19951;-61
2023/04/15 03:21:24;;;;;;;;;;;;;;;9.79;100.00;96703.00;5123200;28;19920;-61
2023/04/15 03:23:51;;;;;;;;;;;;;;;9.88;100.00;96705.81;5122341;28;19931;-61
2023/04/15 03:26:26;;;;;;;;;;;;;;;9.93;100.00;96711.09;5123915;28;19963;-61
2023/04/15 03:28:52;;;;;;;;;;;;;;;9.89;100.00;96710.84;5125858;28;19994;-61
2023/04/15 03:31:18;;;;;;;;;;;;;;;9.88;100.00;96708.47;5127662;28;19962;-61
2023/04/15 03:33:45;;;;;;;;;;;;;;;9.92;100.00;96707.63;5122244;28;19924;-62
2023/04/15 03:36:11;;;;;;;;;;;;;;;9.81;100.00;96705.38;5122947;28;19924;-61
2023/04/15 03:38:37;;;;;;;;;;;;;;;9.81;100.00;96705.38;5125482;28;19923;-61
2023/04/15 03:41:04;;;;;;;;;;;;;;;9.97;100.00;96698.75;5125563;28;19983;-61
2023/04/15 03:43:32;;;;;;;;;;;;;;;9.93;100.00;96708.41;5122073;28;19951;-61
2023/04/15 03:45:58;;;;;;;;;;;;;;;9.85;100.00;96701.84;5121885;28;19931;-61
2023/04/15 03:48:25;;;;;;;;;;;;;;;9.89;100.00;96710.06;5123457;28;19928;-61
2023/04/15 03:50:51;;;;;;;;;;;;;;;9.81;100.00;96703.47;5125472;28;19928;-61
2023/04/15 03:53:18;;;;;;;;;;;;;;;9.87;100.00;96705.03;5123544;28;19930;-61
2023/04/15 03:55:44;;;;;;;;;;;;;;;9.93;100.00;96705.75;5122082;28;20542;-61
2023/04/15 03:58:11;;;;;;;;;;;;;;;9.89;100.00;96699.41;5122595;28;19926;-61
2023/04/15 04:00:40;;;;;;;;;;;;;;;10.00;100.00;96695.50;5111104;28;20014;-61
2023/04/15 04:03:06;;;;;;;;;;;;;;;10.03;100.00;96700.25;5124953;28;19983;-61
2023/04/15 04:05:35;;;;;;;;;;;;;;;9.98;100.00;96700.34;5121453;28;19930;-61
2023/04/15 04:08:02;;;;;;;;;;;;;;;9.94;100.00;96709.97;5121572;28;19954;-61
2023/04/15 04:10:28;;;;;;;;;;;;;;;9.94;100.00;96700.13;5124613;28;19923;-61
2023/04/15 04:12:54;;;;;;;;;;;;;;;10.01;100.00;96705.09;5125393;28;19923;-61
2023/04/15 04:15:21;;;;;;;;;;;;;;;10.03;100.00;96713.59;5122975;28;19959;-61
2023/04/15 04:17:48;;;;;;;;;;;;;;;9.73;100.00;96710.25;5121549;28;19995;-61
2023/04/15 04:20:15;;;;;;;;;;;;;;;9.77;100.00;96719.28;5122855;28;19956;-61
2023/04/15 04:22:41;;;;;;;;;;;;;;;9.87;100.00;96709.56;5124872;28;19919;-61
2023/04/15 04:25:08;;;;;;;;;;;;;;;9.72;100.00;96702.53;5124537;28;19930;-61
2023/04/15 04:27:35;;;;;;;;;;;;;;;9.66;100.00;96717.81;5121479;28;19927;-61
2023/04/15 04:30:01;;;;;;;;;;;;;;;9.77;100.00;96724.63;5124713;28;19979;-61
2023/04/15 04:32:28;;;;;;;;;;;;;;;9.78;100.00;96723.53;5124914;28;19931;-62
2023/04/15 04:34:55;;;;;;;;;;;;;;;9.81;100.00;96726.72;5124895;28;20018;-61
2023/04/15 04:37:23;;;;;;;;;;;;;;;9.66;100.00;96731.13;5122334;28;19987;-61
2023/04/15 04:39:49;;;;;;;;;;;;;;;9.58;100.00;96734.44;5103137;28;19979;-61
2023/04/15 04:42:16;;;;;;;;;;;;;;;9.47;100.00;96729.53;5104422;28;19924;-61
2023/04/15 04:44:42;;;;;;;;;;;;;;;9.57;100.00;96732.84;5124409;28;19923;-61
2023/04/15 04:47:09;;;;;;;;;;;;;;;9.62;100.00;96735.44;5124010;28;19955;-61
2023/04/15 04:49:35;;;;;;;;;;;;;;;9.66;100.00;96738.34;5121065;28;20363;-61
2023/04/15 04:52:03;;;;;;;;;;;;;;;9.59;100.00;96743.25;5120805;28;20435;-61
2023/04/15 04:54:30;;;;;;;;;;;;;;;9.65;100.00;96750.09;5124182;28;20055;-62
2023/04/15 04:56:57;;;;;;;;;;;;;;;9.47;100.00;96751.59;5124275;28;19930;-61
2023/04/15 04:59:24;;;;;;;;;;;;;;;9.46;100.00;96746.59;5121644;28;19923;-61
2023/04/15 05:01:50;;;;;;;;;;;;;;;9.46;100.00;96752.72;5124420;28;19924;-61
2023/04/15 05:04:16;;;;;;;;;;;;;;;9.55;100.00;96748.34;5122093;28;19924;-61
2023/04/15 05:06:43;;;;;;;;;;;;;;;9.47;100.00;96756.19;5106161;28;19927;-61
2023/04/15 05:09:10;;;;;;;;;;;;;;;9.40;100.00;96748.50;5105669;28;19987;-61
2023/04/15 05:11:37;;;;;;;;;;;;;;;9.33;100.00;96749.91;5102457;28;19924;-61
2023/04/15 05:14:03;;;;;;;;;;;;;;;9.37;100.00;96746.41;5120447;28;19928;-61
2023/04/15 05:16:29;;;;;;;;;;;;;;;9.39;100.00;96751.44;5123566;28;20058;-61
2023/04/15 05:18:56;;;;;;;;;;;;;;;9.43;100.00;96745.28;5123904;28;19959;-61
2023/04/15 05:21:22;;;;;;;;;;;;;;;9.53;100.00;96749.72;5121450;28;19924;-61
2023/04/15 05:23:48;;;;;;;;;;;;;;;9.55;100.00;96756.34;5120167;28;19959;-61
2023/04/15 05:26:16;;;;;;;;;;;;;;;9.56;100.00;96746.47;5121421;28;19952;-61
2023/04/15 05:28:42;;;;;;;;;;;;;;;9.49;100.00;96752.13;5123592;28;19928;-61
2023/04/15 05:31:09;;;;;;;;;;;;;;;9.65;100.00;96756.22;5126695;28;19927;-61
2023/04/15 05:33:36;;;;;;;;;;;;;;;9.66;100.00;96751.66;5119983;28;19935;-61
2023/04/15 05:36:02;;;;;;;;;;;;;;;9.81;100.00;96750.72;5119769;28;19958;-61
2023/04/15 05:38:29;;;;;;;;;;;;;;;9.72;100.00;96746.00;5122894;28;19924;-61
2023/04/15 05:40:55;;;;;;;;;;;;;;;9.27;100.00;96743.06;5123474;28;19946;-61
2023/04/15 05:43:23;;;;;;;;;;;;;;;9.05;100.00;96752.31;5121023;28;19924;-61
2023/04/15 05:45:50;;;;;;;;;;;;;;;9.10;100.00;96751.47;5119482;28;19980;-61
2023/04/15 05:48:16;;;;;;;;;;;;;;;9.15;100.00;96749.56;5121077;28;19966;-61
2023/04/15 05:50:42;;;;;;;;;;;;;;;9.00;100.00;96768.38;5123113;28;19923;-61
2023/04/15 05:53:09;;;;;;;;;;;;;;;8.77;100.00;96754.97;5122492;28;19924;-61
2023/04/15 05:55:35;;;;;;;;;;;;;;;8.54;100.00;96770.56;5119520;28;19942;-61
2023/04/15 05:58:02;;;;;;;;;;;;;;;8.72;100.00;96763.81;5119582;28;19924;-61
2023/04/15 06:00:30;;;;;;;;;;;;;;;8.81;100.00;96756.00;5126384;28;20026;-61
2023/04/15 06:02:56;;;;;;;;;;;;;;;8.55;100.00;96748.22;5122899;28;19970;-61
2023/04/15 06:05:23;;;;;;;;;;;;;;;8.82;100.00;96757.63;5120349;28;19934;-61
2023/04/15 06:07:50;;;;;;;;;;;;;;;8.95;100.00;96756.94;5119368;28;19924;-61
2023/04/15 06:10:16;;;;;;;;;;;;;;;8.96;100.00;96750.56;5120157;28;20417;-61
2023/04/15 06:12:43;;;;;;;;;;;;;;;8.83;100.00;96761.84;5122693;28;19979;-61
2023/04/15 06:15:10;;;;;;;;;;;;;;;8.78;100.00;96764.56;5122329;28;19951;-61
2023/04/15 06:17:37;;;;;;;;;;;;;;;8.81;100.00;96751.50;5119247;28;19924;-62
2023/04/15 06:20:04;;;;;;;;;;;;;;;8.66;100.00;96762.25;5119265;28;19928;-61
2023/04/15 06:22:30;;;;;;;;;;;;;;;8.88;100.00;96767.91;5122744;28;19955;-62
2023/04/15 06:24:57;;;;;;;;;;;;;;;8.92;100.00;96765.50;5122784;28;20011;-61
2023/04/15 06:27:23;;;;;;;;;;;;;;;8.80;100.00;96771.19;5120275;28;19924;-61
2023/04/15 06:29:50;;;;;;;;;;;;;;;8.95;100.00;96762.25;5120726;28;19970;-61
2023/04/15 06:32:16;;;;;;;;;;;;;;;9.04;100.00;96765.91;5122737;28;19920;-61
2023/04/15 06:34:44;;;;;;;;;;;;;;;8.98;100.00;96762.50;5122727;28;19924;-61
2023/04/15 06:37:14;;;;;;;;;;;;;;;8.80;100.00;96760.53;5121937;28;19995;-61
2023/04/15 06:39:41;;;;;;;;;;;;;;;9.00;100.00;96767.56;5118983;28;19946;-61
2023/04/15 06:42:08;;;;;;;;;;;;;;;9.04;100.00;96765.91;5101169;28;19924;-61
2023/04/15 06:44:34;;;;;;;;;;;;;;;9.11;100.00;96769.84;5122284;28;19924;-61
2023/04/15 06:47:01;;;;;;;;;;;;;;;9.15;100.00;96757.56;5122381;28;19935;-61
2023/04/15 06:49:27;;;;;;;;;;;;;;;9.07;100.00;96768.00;5119619;28;19931;-61
2023/04/15 06:51:55;;;;;;;;;;;;;;;8.76;100.00;96770.16;5119940;28;19952;-61
2023/04/15 06:54:21;;;;;;;;;;;;;;;8.82;100.00;96768.25;5121911;28;19935;-61
2023/04/15 06:56:48;;;;;;;;;;;;;;;8.96;100.00;96774.50;5123768;28;19924;-61
2023/04/15 06:59:14;;;;;;;;;;;;;;;8.97;100.00;96776.13;5123398;28;19931;-61
2023/04/15 07:01:41;;;;;;;;;;;;;;;8.86;100.00;96777.25;5124036;28;19947;-61
2023/04/15 07:04:07;;;;;;;;;;;;;;;8.73;100.00;96780.56;5119834;28;19924;-61
2023/04/15 07:06:34;;;;;;;;;;;;;;;8.87;100.00;96771.66;5122183;28;19979;-61
2023/04/15 07:09:03;;;;;;;;;;;;;;;8.82;100.00;96773.59;5122392;28;19934;-61
2023/04/15 07:11:30;;;;;;;;;;;;;;;9.01;100.00;96777.13;5118994;28;19924;-61
2023/04/15 07:13:57;;;;;;;;;;;;;;;8.94;100.00;96772.16;5118712;28;20341;-62
2023/04/15 07:16:23;;;;;;;;;;;;;;;9.06;100.00;96774.44;5121367;28;19924;-62
2023/04/15 07:18:50;;;;;;;;;;;;;;;8.81;100.00;96766.66;5122277;28;19983;-62
2023/04/15 07:21:16;;;;;;;;;;;;;;;8.98;100.00;96777.69;5120672;28;19928;-62
2023/04/15 07:23:43;;;;;;;;;;;;;;;9.14;100.00;96776.47;5120932;28;19925;-62
2023/04/15 07:26:11;;;;;;;;;;;;;;;9.14;100.00;96776.47;5122749;28;19924;-62
2023/04/15 07:28:37;;;;;;;;;;;;;;;9.15;100.00;96772.75;5126061;28;19983;-62
2023/04/15 07:31:03;;;;;;;;;;;;;;;9.24;100.00;96776.38;5129961;28;20311;-62
2023/04/15 07:33:30;;;;;;;;;;;;;;;9.12;100.00;96789.28;5122696;28;20087;-62
2023/04/15 07:35:57;;;;;;;;;;;;;;;9.05;100.00;96786.16;5122331;28;19949;-62
2023/04/15 07:38:23;;;;;;;;;;;;;;;8.95;100.00;96794.22;5124528;28;19920;-61
2023/04/15 07:40:49;;;;;;;;;;;;;;;8.89;100.00;96792.66;5125808;28;19920;-61
2023/04/15 07:43:19;;;;;;;;;;;;;;;8.78;100.00;96789.31;5124172;28;19974;-61
2023/04/15 07:45:46;;;;;;;;;;;;;;;8.56;100.00;96791.59;5121897;28;19931;-62
2023/04/15 07:48:12;;;;;;;;;;;;;;;8.71;100.00;96799.47;5123023;28;19931;-62
2023/04/15 07:50:38;;;;;;;;;;;;;;;8.89;100.00;96795.34;5125560;28;19927;-62
2023/04/15 07:53:06;;;;;;;;;;;;;;;9.06;100.00;96799.19;5125667;28;19935;-61
2023/04/15 07:55:32;;;;;;;;;;;;;;;9.14;100.00;96795.13;5113625;28;19954;-61
2023/04/15 07:57:58;;;;;;;;;;;;;;;8.91;100.00;96793.97;5113584;28;19924;-62
2023/04/15 08:00:27;;;;;;;;;;;;;;;9.03;100.00;96796.28;5119987;28;19967;-62
2023/04/15 08:02:53;;;;;;;;;;;;;;;9.03;100.00;96791.78;5125416;28;20536;-61
2023/04/15 08:05:19;;;;;;;;;;;;;;;9.06;100.00;96799.19;5123500;28;19990;-62
2023/04/15 08:07:46;;;;;;;;;;;;;;;9.15;100.00;96794.06;5121911;28;20561;-61
2023/04/15 08:10:12;;;;;;;;;;;;;;;9.08;100.00;96793.56;5122621;28;19924;-61
2023/04/15 08:12:39;;;;;;;;;;;;;;;9.07;100.00;96797.31;5125486;28;19935;-61
2023/04/15 08:15:06;;;;;;;;;;;;;;;9.18;100.00;96799.63;5125365;28;19931;-61
2023/04/15 08:17:34;;;;;;;;;;;;;;;9.28;100.00;96801.38;5113014;28;19924;-62
2023/04/15 08:20:01;;;;;;;;;;;;;;;9.35;100.00;96799.16;5113028;28;19924;-63
2023/04/15 08:22:27;;;;;;;;;;;;;;;9.37;100.00;96812.22;5112783;28;19924;-62
2023/04/15 08:24:53;;;;;;;;;;;;;;;9.34;100.00;96807.47;5112980;28;19931;-61
2023/04/15 08:27:20;;;;;;;;;;;;;;;9.12;100.00;96815.91;5112758;28;19963;-61
2023/04/15 08:29:46;;;;;;;;;;;;;;;9.09;100.00;96817.28;5113789;28;19963;-62
2023/04/15 08:32:13;;;;;;;;;;;;;;;8.96;100.00;96812.59;5124911;28;19932;-61
2023/04/15 08:34:41;;;;;;;;;;;;;;;8.65;100.00;96827.19;5124285;28;20658;-62
2023/04/15 08:37:07;;;;;;;;;;;;;;;8.64;100.00;96834.38;5124355;28;19924;-61
2023/04/15 08:39:34;;;;;;;;;;;;;;;8.59;100.00;96823.78;5120798;28;20364;-61
2023/04/15 08:42:01;;;;;;;;;;;;;;;8.87;100.00;96832.09;5120931;28;19943;-61
2023/04/15 08:44:29;;;;;;;;;;;;;;;9.04;100.00;96825.28;5123674;28;19962;-61
2023/04/15 08:46:56;;;;;;;;;;;;;;;8.96;100.00;96828.56;5124337;28;20010;-61
2023/04/15 08:49:27;;;;;;;;;;;;;;;8.94;100.00;96836.03;5121967;28;19947;-62
2023/04/15 08:51:55;;;;;;;;;;;;;;;9.02;100.00;96831.97;5120705;28;19928;-62
2023/04/15 08:54:22;;;;;;;;;;;;;;;9.12;100.00;96822.03;5122512;28;19924;-62
2023/04/15 08:56:48;;;;;;;;;;;;;;;9.06;100.00;96833.00;5124081;28;19924;-62
2023/04/15 08:59:15;;;;;;;;;;;;;;;8.74;100.00;96840.69;5122872;28;19927;-62
2023/04/15 09:01:41;;;;;;;;;;;;;;;8.71;100.00;96838.59;5124487;28;19931;-62
2023/04/15 09:04:08;;;;;;;;;;;;;;;8.52;100.00;96838.44;5102615;28;19924;-61
2023/04/15 09:06:35;;;;;;;;;;;;;;;8.61;100.00;96839.44;5123887;28;20474;-61
2023/04/15 09:09:02;;;;;;;;;;;;;;;8.76;100.00;96849.22;5123989;28;19924;-61
2023/04/15 09:11:30;;;;;;;;;;;;;;;8.75;100.00;96847.63;5120557;28;19956;-62
2023/04/15 09:13:57;;;;;;;;;;;;;;;8.70;100.00;96850.34;5120500;28;19928;-62
2023/04/15 09:16:23;;;;;;;;;;;;;;;8.84;100.00;96845.97;5122750;28;19979;-62
2023/04/15 09:18:50;;;;;;;;;;;;;;;8.67;100.00;96847.13;5123752;28;19974;-62
2023/04/15 09:21:18;;;;;;;;;;;;;;;8.63;100.00;96842.66;5122193;28;19935;-61
2023/04/15 09:23:54;;;;;;;;;;;;;;;8.78;100.00;96847.06;5120226;28;19924;-62
2023/04/15 09:26:30;;;;;;;;;;;;;;;8.76;100.00;96849.22;5122019;28;19924;-62
2023/04/15 09:29:02;;;;;;;;;;;;;;;8.82;100.00;96856.09;5123536;28;19928;-62
2023/04/15 09:31:30;;;;;;;;;;;;;;;8.81;100.00;96851.84;5124242;28;19959;-62
2023/04/15 09:33:56;;;;;;;;;;;;;;;8.79;100.00;96859.31;5119754;28;19931;-61
2023/04/15 09:36:23;;;;;;;;;;;;;;;8.85;100.00;96866.19;5122144;28;19928;-63
2023/04/15 09:38:54;;;;;;;;;;;;;;;8.88;100.00;96868.31;5123326;28;19924;-62
2023/04/15 09:41:22;;;;;;;;;;;;;;;8.76;100.00;96865.97;5121432;28;19983;-62
2023/04/15 09:43:48;;;;;;;;;;;;;;;8.61;100.00;96868.72;5119941;28;19955;-62
2023/04/15 09:46:15;;;;;;;;;;;;;;;8.36;100.00;96867.00;5119826;27;20011;-61
2023/04/15 09:48:41;;;;;;;;;;;;;;;8.43;100.00;96872.03;5123259;28;19942;-62
2023/04/15 09:51:07;;;;;;;;;;;;;;;8.45;100.00;96876.00;5123058;28;20004;-63
2023/04/15 09:53:35;;;;;;;;;;;;;;;8.50;100.00;96873.31;5119611;28;19924;-62
2023/04/15 09:56:01;;;;;;;;;;;;;;;8.70;100.00;96874.28;5119740;28;19925;-62
2023/04/15 09:58:30;;;;;;;;;;;;;;;8.90;100.00;96876.81;5122665;28;19987;-62
2023/04/15 10:00:57;;;;;;;;;;;;;;;9.07;100.00;96871.88;5109021;28;19928;-62
2023/04/15 10:03:25;;;;;;;;;;;;;;;9.15;100.00;96869.44;5120306;28;19979;-61
2023/04/15 10:05:52;;;;;;;;;;;;;;;9.25;100.00;96862.44;5119306;28;19987;-62
2023/04/15 10:08:20;;;;;;;;;;;;;;;9.32;100.00;96862.88;5121155;28;19924;-62
2023/04/15 10:10:47;;;;;;;;;;;;;;;9.39;100.00;96866.03;5122843;28;19928;-62
2023/04/15 10:13:15;;;;;;;;;;;;;;;9.31;100.00;96863.97;5121777;28;19937;-61
2023/04/15 10:15:46;;;;;;;;;;;;;;;9.31;100.00;96867.44;5100965;28;19924;-61
2023/04/15 10:18:15;;;;;;;;;;;;;;;9.30;100.00;96876.50;5119865;28;19992;-62
2023/04/15 10:20:42;;;;;;;;;;;;;;;9.36;100.00;96864.72;5122631;28;19931;-62
2023/04/15 10:23:09;;;;;;;;;;;;;;;9.13;100.00;96871.56;5122344;28;19924;-62
2023/04/15 10:25:36;;;;;;;;;;;;;;;8.95;100.00;96871.44;5119309;28;19978;-62
2023/04/15 10:28:03;;;;;;;;;;;;;;;9.20;100.00;96865.91;5119465;28;19924;-62
2023/04/15 10:30:30;;;;;;;;;;;;;;;9.04;100.00;96862.56;5108317;28;19995;-62
2023/04/15 10:32:58;;;;;;;;;;;;;;;8.99;100.00;96873.28;5122917;28;19962;-62
2023/04/15 10:35:25;;;;;;;;;;;;;;;9.14;100.00;96867.03;5120311;28;19962;-61
2023/04/15 10:37:51;;;;;;;;;;;;;;;9.22;100.00;96869.88;5119362;28;19924;-61
2023/04/15 10:40:26;;;;;;;;;;;;;;;9.17;100.00;96867.28;5120655;28;19956;-61
2023/04/15 10:42:53;;;;;;;;;;;;;;;9.29;100.00;96868.75;5122721;28;19924;-62
2023/04/15 10:45:19;;;;;;;;;;;;;;;9.29;100.00;96864.22;5102590;28;19923;-62
2023/04/15 10:47:46;;;;;;;;;;;;;;;9.32;100.00;96868.19;5101041;28;19984;-62
2023/04/15 10:50:13;;;;;;;;;;;;;;;9.33;100.00;96870.59;5119633;28;19971;-62
2023/04/15 10:52:41;;;;;;;;;;;;;;;9.51;100.00;96871.75;5122637;28;19959;-62
2023/04/15 10:55:13;;;;;;;;;;;;;;;9.55;100.00;96876.25;5104277;28;19932;-62
2023/04/15 10:57:40;;;;;;;;;;;;;;;9.59;100.00;96874.59;5121285;28;19928;-61
2023/04/15 11:00:11;;;;;;;;;;;;;;;9.65;100.00;96870.03;5126727;28;19928;-62
2023/04/15 11:02:41;;;;;;;;;;;;;;;9.47;100.00;96866.19;5122897;28;19953;-62
2023/04/15 11:05:08;;;;;;;;;;;;;;;9.56;100.00;96861.84;5122889;28;20121;-62
2023/04/15 11:07:36;;;;;;;;;;;;;;;9.57;100.00;96866.09;5126256;28;19924;-62
2023/04/15 11:10:03;;;;;;;;;;;;;;;9.58;100.00;96866.91;5126112;28;20010;-62
2023/04/15 11:12:36;;;;;;;;;;;;;;;9.43;100.00;96881.19;5122714;28;19948;-62
2023/04/15 11:15:17;;;;;;;;;;;;;;;9.39;100.00;96877.47;5122418;28;19925;-62
2023/04/15 11:17:44;;;;;;;;;;;;;;;9.32;100.00;96870.88;5114404;28;19950;-62
2023/04/15 11:20:14;;;;;;;;;;;;;;;9.41;100.00;96877.97;5113873;28;19958;-60
2023/04/15 11:22:48;;;;;;;;;;;;;;;9.57;100.00;96879.44;5113873;28;19963;-62
2023/04/15 11:25:22;;;;;;;;;;;;;;;9.58;100.00;96882.91;5113952;28;19934;-62
2023/04/15 11:27:48;;;;;;;;;;;;;;;9.26;100.00;96875.44;5113721;28;19946;-63
2023/04/15 11:30:20;;;;;;;;;;;;;;;9.18;100.00;96895.50;5118690;28;19928;-62
2023/04/15 11:32:46;;;;;;;;;;;;;;;9.10;100.00;96888.09;5125646;28;19946;-62
2023/04/15 11:35:12;;;;;;;;;;;;;;;9.06;100.00;96896.94;5124624;28;20208;-63
2023/04/15 11:37:39;;;;;;;;;;;;;;;9.04;100.00;96896.38;5121996;28;19939;-62
2023/04/15 11:40:08;;;;;;;;;;;;;;;8.96;100.00;96907.66;5103819;28;19935;-63
2023/04/15 11:42:34;;;;;;;;;;;;;;;8.99;100.00;96897.25;5113618;28;19978;-62
2023/04/15 11:45:06;;;;;;;;;;;;;;;9.08;100.00;96900.91;5113387;28;19931;-62
2023/04/15 11:47:32;;;;;;;;;;;;;;;9.27;100.00;96908.22;5113333;28;19991;-62
2023/04/15 11:50:13;;;;;;;;;;;;;;;9.36;100.00;96911.88;5113512;28;20019;-67
2023/04/15 11:52:39;;;;;;;;;;;;;;;9.32;100.00;96911.63;5121866;28;19982;-64
2023/04/15 11:55:09;;;;;;;;;;;;;;;9.36;100.00;96919.88;5122173;28;19931;-63
2023/04/15 11:57:35;;;;;;;;;;;;;;;9.32;100.00;96913.50;5113912;28;20472;-64
2023/04/15 12:00:03;;;;;;;;;;;;;;;9.27;100.00;96921.53;5116912;28;19924;-64
2023/04/15 12:02:30;;;;;;;;;;;;;;;9.37;100.00;96919.59;5125430;28;19951;-64
2023/04/15 12:05:02;;;;;;;;;;;;;;;9.40;100.00;96927.03;5125484;28;20007;-64
2023/04/15 12:07:29;;;;;;;;;;;;;;;9.33;100.00;96926.56;5122141;28;19960;-63
2023/04/15 12:09:56;;;;;;;;;;;;;;;9.29;100.00;96919.38;5121132;28;19931;-63
2023/04/15 12:12:28;;;;;;;;;;;;;;;9.23;100.00;96926.63;5123863;28;19935;-63
2023/04/15 12:14:56;;;;;;;;;;;;;;;9.57;100.00;96930.06;5125515;28;19920;-63
2023/04/15 12:17:23;;;;;;;;;;;;;;;9.75;100.00;96932.03;5123157;28;19930;-65
2023/04/15 12:19:55;;;;;;;;;;;;;;;9.72;100.00;96927.28;5121876;28;19951;-65
2023/04/15 12:22:22;;;;;;;;;;;;;;;9.48;100.00;96936.28;5124432;28;19959;-65
2023/04/15 12:24:55;;;;;;;;;;;;;;;9.20;100.00;96938.63;5126391;28;19928;-64
2023/04/15 12:27:26;;;;;;;;;;;;;;;9.05;100.00;96940.59;5126373;28;19924;-64
2023/04/15 12:30:03;;;;;;;;;;;;;;;9.07;100.00;96941.91;5130530;28;19931;-63
2023/04/15 12:32:29;;;;;;;;;;;;;;;9.07;100.00;96951.75;5134245;28;19941;-63
2023/04/15 12:34:55;;;;;;;;;;;;;;;9.13;100.00;96948.00;5134142;28;20392;-64
2023/04/15 12:37:22;;;;;;;;;;;;;;;9.23;100.00;96955.91;5126524;28;19972;-62
2023/04/15 12:39:49;;;;;;;;;;;;;;;9.21;100.00;96953.56;5126130;28;19950;-63
2023/04/15 12:42:16;;;;;;;;;;;;;;;9.23;100.00;96953.25;5126994;28;19912;-60
2023/04/15 12:44:43;;;;;;;;;;;;;;;9.52;100.00;96959.44;5127307;28;19930;-61